Time;durP1;ratioP1;P1;durP2;ratioP2;P2;SDS_P1;SDS_P2;PMS_P1;PMS_P2;Temp;Humidity;BMP_temperature;BMP_pressure;BME280_temperature;BME280_humidity;BME280_pressure;Samples;Min_cycle;Max_cycle;Signal;HPM_P1;HPM_P2
2021/03/10 00:00:27;;;;;;;13.23;4.83;;;2.40;60.50;;;;;;4972268;29;20475;-51
2021/03/10 00:02:54;;;;;;;8.73;5.13;;;2.40;61.50;;;;;;4967998;29;20427;-54
2021/03/10 00:05:26;;;;;;;9.10;5.20;;;2.40;61.30;;;;;;4964927;29;20452;-56
2021/03/10 00:07:53;;;;;;;8.83;5.27;;;2.30;61.60;;;;;;4963895;29;20464;-51
2021/03/10 00:10:21;;;;;;;8.87;5.00;;;2.30;61.90;;;;;;4965664;29;20773;-51
2021/03/10 00:12:48;;;;;;;8.63;4.80;;;2.30;62.10;;;;;;4955006;29;20501;-54
2021/03/10 00:15:15;;;;;;;10.53;5.07;;;2.30;62.10;;;;;;4923257;29;946904;-53
2021/03/10 00:17:43;;;;;;;8.67;4.50;;;2.30;62.30;;;;;;4956451;29;20483;-52
2021/03/10 00:20:14;;;;;;;14.73;5.77;;;2.20;62.40;;;;;;4956936;29;20485;-55
2021/03/10 00:26:04;;;;;;;6.90;4.40;;;2.10;62.80;;;;;;4957644;29;20825;-53
2021/03/10 00:28:31;;;;;;;12.60;5.10;;;2.10;63.10;;;;;;4956395;29;20452;-53
2021/03/10 00:30:58;;;;;;;12.53;4.97;;;2.10;63.50;;;;;;4956508;29;20441;-55
2021/03/10 00:33:26;;;;;;;11.00;6.43;;;2.10;64.60;;;;;;4956054;29;20484;-56
2021/03/10 00:35:55;;;;;;;9.43;5.30;;;2.10;64.70;;;;;;4955651;29;20440;-53
2021/03/10 00:38:22;;;;;;;7.67;4.53;;;2.10;64.70;;;;;;4956042;29;20465;-53
2021/03/10 00:45:59;;;;;;;8.40;5.03;;;2.10;64.20;;;;;;6007668;23;20369;-56
2021/03/10 00:48:27;;;;;;;5.93;4.90;;;2.10;64.30;;;;;;5030213;23;20467;-53
2021/03/10 01:09:02;;;;;;;9.23;5.60;;;1.80;66.80;;;;;;5870782;23;20494;-54
2021/03/10 01:11:29;;;;;;;11.43;5.37;;;1.80;67.80;;;;;;5006045;23;20466;-51
2021/03/10 01:13:56;;;;;;;10.23;5.63;;;1.80;67.30;;;;;;4999563;28;20446;-52
2021/03/10 01:16:23;;;;;;;11.20;5.73;;;1.80;67.60;;;;;;4999255;28;20486;-54
2021/03/10 01:23:52;;;;;;;10.73;5.40;;;1.70;68.30;;;;;;4991967;28;20462;-56
2021/03/10 01:26:20;;;;;;;8.60;5.30;;;1.70;68.60;;;;;;5515946;23;20811;-58
2021/03/10 01:28:47;;;;;;;9.03;4.73;;;1.60;68.80;;;;;;4998913;28;20783;-57
2021/03/10 01:36:33;;;;;;;10.43;5.33;;;1.60;70.50;;;;;;5047862;23;20545;-60
2021/03/10 01:41:54;;;;;;;9.60;6.40;;;1.60;71.60;;;;;;5405102;23;20482;-50
2021/03/10 01:44:21;;;;;;;10.67;6.17;;;1.60;72.10;;;;;;4995695;28;20478;-54
2021/03/10 01:52:20;;;;;;;11.80;6.40;;;1.50;72.70;;;;;;5849555;23;20490;-46
2021/03/10 01:54:47;;;;;;;14.97;7.10;;;1.50;72.70;;;;;;4977875;28;20436;-57
2021/03/10 02:05:02;;;;;;;11.63;7.17;;;1.50;74.60;;;;;;5071768;23;20482;-53
2021/03/10 02:07:37;;;;;;;11.37;6.57;;;1.50;75.30;;;;;;4998557;28;20435;-56
2021/03/10 02:10:13;;;;;;;9.30;5.70;;;1.50;75.60;;;;;;5336548;23;20470;-56
2021/03/10 02:12:48;;;;;;;14.83;7.53;;;1.50;75.90;;;;;;4998281;28;20447;-54
2021/03/10 02:15:21;;;;;;;10.10;6.10;;;1.50;76.30;;;;;;5134323;23;20493;-54
2021/03/10 02:17:53;;;;;;;12.60;6.47;;;1.40;76.50;;;;;;5113324;23;20525;-52
2021/03/10 02:20:33;;;;;;;14.00;6.37;;;1.40;76.90;;;;;;5038955;23;20685;-56
2021/03/10 02:23:32;;;;;;;12.30;5.77;;;1.40;77.30;;;;;;5376754;23;20521;-56
2021/03/10 02:31:24;;;;;;;13.53;5.93;;;1.40;78.00;;;;;;5385672;23;20486;-52
2021/03/10 02:36:27;;;;;;;15.67;6.40;;;1.40;77.00;;;;;;5509615;23;20478;-53
2021/03/10 02:38:56;;;;;;;14.33;5.90;;;1.40;76.80;;;;;;5695269;23;20493;-56
2021/03/10 02:41:24;;;;;;;12.30;5.83;;;1.30;76.80;;;;;;4995031;28;20434;-49
2021/03/10 02:43:52;;;;;;;15.63;7.07;;;1.30;77.20;;;;;;4991067;28;20908;-52
2021/03/10 02:46:20;;;;;;;8.97;5.50;;;1.20;77.20;;;;;;5525081;23;20494;-54
2021/03/10 02:48:49;;;;;;;8.70;5.23;;;1.30;77.60;;;;;;4999636;28;20461;-51
2021/03/10 02:51:20;;;;;;;16.27;8.03;;;1.20;77.80;;;;;;4997716;28;20439;-52
2021/03/10 02:53:49;;;;;;;10.30;6.10;;;1.20;78.20;;;;;;4990099;28;20550;-48
2021/03/10 02:56:16;;;;;;;9.53;5.40;;;1.20;78.40;;;;;;4987314;28;20807;-55
2021/03/10 02:58:44;;;;;;;11.03;7.50;;;1.10;78.90;;;;;;4988454;28;20518;-53
2021/03/10 03:01:12;;;;;;;12.73;6.40;;;1.10;79.50;;;;;;4991394;28;20435;-53
2021/03/10 03:06:24;;;;;;;11.27;7.00;;;1.10;80.70;;;;;;5182012;23;20513;-56
2021/03/10 03:29:35;;;;;;;13.87;7.20;;;1.00;84.40;;;;;;5713411;23;20477;-53
2021/03/10 03:32:02;;;;;;;17.20;8.37;;;1.00;85.10;;;;;;4999705;28;20443;-56
2021/03/10 03:34:30;;;;;;;14.43;8.50;;;1.00;85.50;;;;;;4985097;28;20443;-56
2021/03/10 03:39:37;;;;;;;12.43;7.20;;;1.00;85.40;;;;;;5086810;23;20259;-56
2021/03/10 03:42:07;;;;;;;19.10;7.93;;;0.90;85.90;;;;;;5000450;28;20451;-56
2021/03/10 03:44:35;;;;;;;10.17;6.80;;;0.90;86.10;;;;;;5049783;23;20487;-53
2021/03/10 03:47:02;;;;;;;15.03;8.10;;;0.90;86.40;;;;;;4990987;28;20759;-56
2021/03/10 03:49:29;;;;;;;18.53;7.53;;;0.90;86.80;;;;;;4991248;28;20447;-50
2021/03/10 03:54:31;;;;;;;18.17;10.13;;;0.90;87.40;;;;;;5272406;23;20490;-48
2021/03/10 03:59:35;;;;;;;15.10;6.33;;;0.90;88.60;;;;;;5669579;23;20466;-47
2021/03/10 04:02:02;;;;;;;11.90;6.60;;;0.90;89.40;;;;;;5338079;23;20479;-50
2021/03/10 04:04:46;;;;;;;15.60;6.57;;;0.90;90.00;;;;;;5198297;23;20447;-50
2021/03/10 04:07:28;;;;;;;18.57;7.50;;;0.80;90.00;;;;;;5307594;23;20443;-51
2021/03/10 04:09:55;;;;;;;15.90;6.93;;;0.80;90.10;;;;;;4998706;28;20473;-49
2021/03/10 04:17:33;;;;;;;15.20;7.87;;;0.70;90.60;;;;;;5380592;23;20273;-50
2021/03/10 04:20:00;;;;;;;9.97;6.07;;;0.70;90.60;;;;;;4999645;28;20450;-53
2021/03/10 04:30:16;;;;;;;14.07;8.83;;;0.70;91.00;;;;;;5691962;23;20677;-51
2021/03/10 04:37:57;;;;;;;20.03;8.03;;;0.60;90.80;;;;;;5304221;23;20516;-55
2021/03/10 04:40:24;;;;;;;16.73;8.40;;;0.60;90.80;;;;;;5147152;23;20455;-51
2021/03/10 04:42:52;;;;;;;15.33;8.30;;;0.60;90.90;;;;;;4998110;28;20771;-51
2021/03/10 04:45:19;;;;;;;18.33;6.97;;;0.60;91.10;;;;;;4993722;28;20815;-55
2021/03/10 04:47:47;;;;;;;19.70;9.13;;;0.60;91.10;;;;;;4997923;28;20443;-51
2021/03/10 04:50:15;;;;;;;14.87;7.80;;;0.60;91.10;;;;;;4998199;28;20438;-54
2021/03/10 04:55:18;;;;;;;12.63;6.17;;;0.60;91.20;;;;;;5443973;23;20480;-51
2021/03/10 04:57:47;;;;;;;12.63;7.40;;;0.60;91.10;;;;;;4998022;28;20478;-55
2021/03/10 05:00:14;;;;;;;16.70;8.40;;;0.60;91.30;;;;;;4998135;28;20511;-55
2021/03/10 05:02:41;;;;;;;14.23;7.90;;;0.50;91.40;;;;;;4997595;28;20466;-50
2021/03/10 05:05:10;;;;;;;16.50;8.00;;;0.50;91.40;;;;;;4996885;28;20768;-52
2021/03/10 05:07:37;;;;;;;17.87;8.00;;;0.50;91.60;;;;;;4997309;28;20450;-48
2021/03/10 05:10:04;;;;;;;18.60;10.50;;;0.50;91.50;;;;;;4997250;28;20462;-51
2021/03/10 05:12:32;;;;;;;11.63;7.80;;;0.50;91.90;;;;;;4996730;28;20451;-50
2021/03/10 05:15:00;;;;;;;17.13;8.03;;;0.50;92.30;;;;;;4996459;28;20447;-51
2021/03/10 05:17:27;;;;;;;12.90;8.10;;;0.60;92.30;;;;;;4997128;28;20474;-53
2021/03/10 05:19:57;;;;;;;15.80;9.67;;;0.50;92.20;;;;;;4989564;28;20447;-56
2021/03/10 05:22:24;;;;;;;19.80;8.20;;;0.50;92.30;;;;;;4987894;28;20768;-55
2021/03/10 05:24:51;;;;;;;11.90;7.53;;;0.60;91.90;;;;;;4986626;28;20478;-51
2021/03/10 05:32:32;;;;;;;20.33;8.60;;;0.80;91.10;;;;;;5999464;23;20540;-46
2021/03/10 05:34:59;;;;;;;15.40;7.40;;;0.80;91.50;;;;;;4995982;28;20522;-55
2021/03/10 05:37:26;;;;;;;15.00;8.43;;;0.80;91.80;;;;;;4996386;28;20475;-51
2021/03/10 05:39:53;;;;;;;13.70;8.63;;;0.70;92.00;;;;;;4996147;28;20455;-55
2021/03/10 05:42:23;;;;;;;20.40;8.50;;;0.80;91.80;;;;;;4994751;28;20756;-52
2021/03/10 05:44:51;;;;;;;20.40;9.97;;;0.70;91.80;;;;;;4995949;28;20434;-51
2021/03/10 05:47:19;;;;;;;21.03;8.50;;;0.80;92.20;;;;;;4996501;28;20431;-56
2021/03/10 05:49:48;;;;;;;16.73;8.33;;;0.70;92.40;;;;;;4995886;28;20793;-51
2021/03/10 05:52:19;;;;;;;23.10;9.50;;;0.80;92.40;;;;;;4996003;28;20494;-52
2021/03/10 05:54:48;;;;;;;16.23;9.90;;;0.70;92.60;;;;;;4996038;28;20435;-52
2021/03/10 05:57:15;;;;;;;18.60;7.97;;;0.70;92.80;;;;;;4996376;28;20558;-49
2021/03/10 05:59:42;;;;;;;17.70;9.20;;;0.70;93.20;;;;;;4984730;28;20883;-55
2021/03/10 06:02:09;;;;;;;15.27;9.10;;;0.60;93.40;;;;;;4989499;28;20766;-52
2021/03/10 06:04:40;;;;;;;21.87;10.27;;;0.60;93.70;;;;;;4994735;28;20470;-55
2021/03/10 06:07:19;;;;;;;16.40;8.97;;;0.60;94.30;;;;;;4996322;28;20446;-52
2021/03/10 06:09:58;;;;;;;18.63;8.73;;;0.60;94.30;;;;;;4996582;28;20486;-54
2021/03/10 06:12:36;;;;;;;23.37;9.47;;;0.60;94.30;;;;;;4996515;28;20426;-55
2021/03/10 06:15:03;;;;;;;20.67;9.10;;;0.60;94.30;;;;;;4996727;28;20459;-52
2021/03/10 06:17:41;;;;;;;25.53;10.57;;;0.60;94.30;;;;;;4994659;28;20517;-52
2021/03/10 06:20:09;;;;;;;25.03;8.70;;;0.60;94.40;;;;;;4996533;28;20451;-50
2021/03/10 06:22:37;;;;;;;18.20;9.43;;;0.60;94.40;;;;;;4996311;28;20506;-55
2021/03/10 06:25:06;;;;;;;21.17;9.60;;;0.70;94.50;;;;;;4992734;28;20453;-52
2021/03/10 06:27:32;;;;;;;22.20;9.47;;;0.80;94.50;;;;;;4998089;28;20443;-56
2021/03/10 06:30:00;;;;;;;17.63;9.13;;;0.80;94.50;;;;;;4996961;28;20454;-49
2021/03/10 06:32:28;;;;;;;23.40;8.93;;;0.80;94.50;;;;;;4997243;28;20482;-53
2021/03/10 06:34:55;;;;;;;21.90;8.07;;;0.80;94.20;;;;;;4977768;29;20753;-52
2021/03/10 06:37:30;;;;;;;16.80;7.67;;;0.80;93.80;;;;;;4977568;29;20471;-57
2021/03/10 06:40:08;;;;;;;14.83;9.20;;;0.80;93.80;;;;;;4977449;29;20428;-53
2021/03/10 06:42:37;;;;;;;19.53;9.23;;;0.70;93.80;;;;;;4977316;29;20447;-52
2021/03/10 06:45:06;;;;;;;21.37;10.53;;;0.70;93.80;;;;;;4977958;29;20447;-57
2021/03/10 06:47:36;;;;;;;25.87;9.90;;;0.80;93.60;;;;;;4976975;29;20444;-51
2021/03/10 06:50:06;;;;;;;20.17;9.20;;;0.80;93.60;;;;;;4976867;29;20452;-51
2021/03/10 06:52:32;;;;;;;16.90;10.63;;;0.80;93.30;;;;;;4976997;29;20475;-57
2021/03/10 06:55:03;;;;;;;19.43;9.53;;;0.80;93.30;;;;;;4976824;29;20443;-54
2021/03/10 06:57:30;;;;;;;21.60;10.10;;;0.80;93.60;;;;;;4977592;29;20833;-55
2021/03/10 06:59:58;;;;;;;17.73;9.80;;;0.90;93.50;;;;;;4977458;29;20753;-49
2021/03/10 07:02:26;;;;;;;15.07;9.40;;;0.90;93.30;;;;;;4980017;28;20439;-50
2021/03/10 07:04:55;;;;;;;18.83;8.93;;;1.00;93.20;;;;;;4980425;29;20471;-54
2021/03/10 07:07:22;;;;;;;23.90;9.70;;;1.10;92.80;;;;;;4979106;29;20448;-51
2021/03/10 07:09:51;;;;;;;22.10;11.23;;;1.20;92.80;;;;;;4981481;29;20427;-49
2021/03/10 07:12:19;;;;;;;18.90;9.57;;;1.20;92.70;;;;;;4979259;29;20841;-51
2021/03/10 07:18:10;;;;;;;21.33;9.20;;;1.40;93.10;;;;;;4981038;29;20471;-48
2021/03/10 07:20:43;;;;;;;21.40;9.70;;;1.50;92.00;;;;;;4981396;29;20491;-49
2021/03/10 07:23:13;;;;;;;20.90;10.00;;;1.60;92.20;;;;;;4980223;29;20523;-49
2021/03/10 07:25:43;;;;;;;19.80;10.70;;;1.70;91.70;;;;;;4975545;29;20445;-50
2021/03/10 07:28:14;;;;;;;23.27;11.83;;;1.80;91.50;;;;;;4978128;28;20432;-48
2021/03/10 07:30:44;;;;;;;18.77;11.47;;;1.90;94.00;;;;;;4978008;29;20444;-48
2021/03/10 07:33:14;;;;;;;23.17;11.43;;;2.00;92.70;;;;;;4981149;28;20546;-48
2021/03/10 07:35:49;;;;;;;17.47;10.73;;;2.10;92.80;;;;;;4995196;28;20447;-45
2021/03/10 07:38:16;;;;;;;24.80;10.40;;;2.20;92.70;;;;;;4994290;28;20783;-48
2021/03/10 07:40:57;;;;;;;19.10;10.50;;;2.30;91.50;;;;;;4993273;28;20427;-44
2021/03/10 07:43:43;;;;;;;35.03;11.87;;;2.30;95.70;;;;;;4993686;28;20451;-45
2021/03/10 07:46:20;;;;;;;19.60;10.17;;;2.40;91.30;;;;;;4991736;28;20466;-44
2021/03/10 07:48:48;;;;;;;22.93;11.53;;;2.50;90.50;;;;;;4992611;28;20815;-46
2021/03/10 07:51:29;;;;;;;26.47;12.07;;;2.50;90.10;;;;;;4997624;28;20453;-48
2021/03/10 07:53:57;;;;;;;30.03;11.77;;;2.60;90.00;;;;;;4994272;28;20529;-43
2021/03/10 07:56:29;;;;;;;17.80;9.97;;;2.60;89.30;;;;;;4993414;28;20455;-45
2021/03/10 07:59:12;;;;;;;20.77;10.43;;;2.60;88.40;;;;;;5011464;28;20469;-52
2021/03/10 08:01:41;;;;;;;16.73;9.97;;;2.70;88.00;;;;;;5001554;28;20438;-48
2021/03/10 08:04:17;;;;;;;18.20;10.87;;;2.80;86.70;;;;;;4989547;28;20431;-50
2021/03/10 08:06:47;;;;;;;24.83;11.63;;;2.90;86.70;;;;;;4989575;28;20458;-47
2021/03/10 08:09:17;;;;;;;19.23;10.10;;;3.00;88.70;;;;;;4970189;29;20751;-49
2021/03/10 08:11:47;;;;;;;16.50;9.33;;;3.10;87.10;;;;;;4970449;29;20463;-43
2021/03/10 08:14:17;;;;;;;24.67;11.13;;;3.20;86.50;;;;;;4974029;28;20454;-43
2021/03/10 08:16:52;;;;;;;21.47;11.67;;;3.30;85.30;;;;;;4982561;28;20487;-46
2021/03/10 08:19:25;;;;;;;22.20;12.20;;;3.40;84.90;;;;;;4976714;28;20528;-45
2021/03/10 08:21:55;;;;;;;19.17;9.97;;;3.50;84.10;;;;;;4980339;28;20455;-43
2021/03/10 08:24:24;;;;;;;19.43;11.33;;;3.60;83.50;;;;;;4981090;28;20466;-50
2021/03/10 08:26:53;;;;;;;19.50;10.93;;;3.70;82.90;;;;;;4994698;28;20442;-45
2021/03/10 08:29:23;;;;;;;24.90;11.53;;;3.80;82.10;;;;;;4985682;28;20915;-44
2021/03/10 08:31:54;;;;;;;23.60;12.13;;;3.90;82.40;;;;;;4985416;28;20471;-43
2021/03/10 08:34:35;;;;;;;18.10;11.27;;;4.00;80.40;;;;;;4985873;28;20827;-47
2021/03/10 08:37:09;;;;;;;21.87;11.00;;;4.10;79.50;;;;;;4992052;28;20477;-47
2021/03/10 08:39:43;;;;;;;26.60;10.47;;;4.20;78.60;;;;;;4994706;28;20457;-47
2021/03/10 08:42:12;;;;;;;14.70;9.67;;;4.30;78.70;;;;;;4986415;28;20450;-48
2021/03/10 08:44:45;;;;;;;20.13;9.73;;;4.40;77.20;;;;;;5005898;28;20555;-46
2021/03/10 08:47:18;;;;;;;18.97;9.30;;;4.50;76.90;;;;;;4992799;28;20850;-47
2021/03/10 08:49:52;;;;;;;24.97;13.10;;;4.60;75.50;;;;;;4986267;28;20850;-46
2021/03/10 08:52:22;;;;;;;23.20;10.50;;;4.70;76.30;;;;;;4987651;28;20455;-50
2021/03/10 08:54:56;;;;;;;17.73;9.00;;;4.90;80.50;;;;;;5002419;28;20969;-43
2021/03/10 08:57:26;;;;;;;22.90;11.20;;;5.10;75.70;;;;;;5011063;28;20470;-50
2021/03/10 08:59:54;;;;;;;15.77;8.67;;;6.20;74.10;;;;;;5012343;28;20446;-48
2021/03/10 09:02:29;;;;;;;21.87;9.40;;;8.30;68.40;;;;;;5000873;28;20454;-47
2021/03/10 09:04:59;;;;;;;21.27;11.30;;;10.80;56.10;;;;;;4993631;28;20431;-47
2021/03/10 09:07:28;;;;;;;13.77;8.80;;;13.10;49.70;;;;;;4991909;28;20460;-52
2021/03/10 09:09:58;;;;;;;17.20;11.10;;;15.10;44.10;;;;;;4993083;28;20529;-49
2021/03/10 09:12:29;;;;;;;13.27;9.47;;;16.70;39.20;;;;;;4983199;28;21250;-49
2021/03/10 09:14:57;;;;;;;17.33;11.40;;;18.40;35.70;;;;;;4985934;28;20816;-45
2021/03/10 09:17:32;;;;;;;14.10;11.60;;;19.50;32.50;;;;;;4989611;28;20810;-46
2021/03/10 09:20:02;;;;;;;21.00;10.80;;;20.80;31.10;;;;;;4983447;28;20801;-48
2021/03/10 09:22:31;;;;;;;16.10;9.77;;;21.70;28.80;;;;;;4987361;28;20486;-46
2021/03/10 09:25:04;;;;;;;14.43;9.50;;;22.40;27.90;;;;;;4981534;28;20598;-52
2021/03/10 09:27:32;;;;;;;15.77;10.53;;;23.30;27.10;;;;;;4984529;28;20765;-56
2021/03/10 09:30:02;;;;;;;14.33;9.50;;;23.30;25.70;;;;;;4985322;28;20483;-49
2021/03/10 09:32:43;;;;;;;13.50;10.20;;;22.80;25.30;;;;;;4984486;28;20914;-49
2021/03/10 09:35:16;;;;;;;12.60;9.60;;;21.00;25.50;;;;;;4989923;28;20446;-51
2021/03/10 09:37:53;;;;;;;16.00;10.77;;;19.00;26.80;;;;;;4986700;28;21004;-55
2021/03/10 09:40:23;;;;;;;14.07;8.33;;;17.30;27.50;;;;;;4987435;28;20776;-56
2021/03/10 09:42:58;;;;;;;11.80;8.57;;;15.70;28.50;;;;;;4996615;28;20481;-59
2021/03/10 09:45:28;;;;;;;13.03;8.60;;;14.30;29.60;;;;;;4991763;28;20473;-55
2021/03/10 09:47:57;;;;;;;11.00;7.47;;;13.40;30.50;;;;;;4987858;28;20447;-53
2021/03/10 09:50:32;;;;;;;13.97;8.77;;;13.70;31.90;;;;;;4993331;28;20457;-57
2021/03/10 09:53:00;;;;;;;14.40;9.30;;;15.00;30.90;;;;;;4986772;28;20712;-58
2021/03/10 09:55:28;;;;;;;29.67;18.50;;;16.60;29.70;;;;;;4984964;28;20783;-56
2021/03/10 09:58:07;;;;;;;43.23;8.93;;;18.20;28.00;;;;;;4992788;28;20806;-56
2021/03/10 10:00:37;;;;;;;21.63;13.00;;;19.50;26.90;;;;;;4985040;28;20884;-58
2021/03/10 10:03:06;;;;;;;14.77;8.60;;;20.20;26.60;;;;;;4981775;28;20837;-53
2021/03/10 10:05:37;;;;;;;11.33;6.80;;;20.70;25.50;;;;;;4991662;28;20836;-56
2021/03/10 10:08:07;;;;;;;11.80;7.20;;;21.20;25.20;;;;;;4987156;28;20792;-55
2021/03/10 10:10:37;;;;;;;8.57;6.80;;;21.30;24.70;;;;;;5010875;23;20947;-50
2021/03/10 10:13:06;;;;;;;8.20;6.07;;;21.10;24.20;;;;;;4956609;29;20530;-49
2021/03/10 10:15:35;;;;;;;9.13;7.07;;;20.70;24.10;;;;;;4957053;29;20800;-45
2021/03/10 10:18:06;;;;;;;10.83;6.33;;;20.30;24.30;;;;;;4957430;29;20821;-50
2021/03/10 10:20:37;;;;;;;9.80;6.43;;;19.70;24.80;;;;;;4957523;29;20772;-49
2021/03/10 10:23:06;;;;;;;8.30;6.77;;;19.20;25.10;;;;;;4956694;29;20789;-47
2021/03/10 10:25:35;;;;;;;9.60;6.30;;;19.10;25.30;;;;;;4957790;29;20797;-46
2021/03/10 10:28:03;;;;;;;10.40;7.27;;;19.10;25.20;;;;;;4957458;29;20789;-46
2021/03/10 10:30:31;;;;;;;8.53;5.60;;;19.00;25.20;;;;;;4958174;29;20844;-51
2021/03/10 10:32:59;;;;;;;6.37;5.27;;;18.60;25.10;;;;;;4958667;29;20761;-52
2021/03/10 10:35:28;;;;;;;8.73;5.23;;;18.30;25.30;;;;;;4958458;29;20559;-51
2021/03/10 10:38:00;;;;;;;7.53;5.00;;;18.00;25.60;;;;;;4960635;28;20787;-49
2021/03/10 10:40:29;;;;;;;8.10;5.20;;;17.40;24.80;;;;;;4962388;29;20921;-45
2021/03/10 10:42:57;;;;;;;10.03;5.53;;;17.10;25.30;;;;;;4962142;29;20920;-46
2021/03/10 10:45:26;;;;;;;8.20;5.30;;;16.70;25.40;;;;;;4962450;29;20795;-47
2021/03/10 10:47:54;;;;;;;10.23;5.57;;;16.40;25.90;;;;;;4962499;29;20447;-49
2021/03/10 10:50:23;;;;;;;7.60;4.90;;;16.30;25.90;;;;;;4962313;29;20777;-43
2021/03/10 10:52:51;;;;;;;6.00;4.83;;;15.90;25.80;;;;;;4962417;29;20557;-50
2021/03/10 10:55:22;;;;;;;5.50;4.30;;;15.50;25.80;;;;;;4962089;29;20847;-46
2021/03/10 10:57:50;;;;;;;7.07;4.67;;;15.40;25.90;;;;;;4961977;29;21011;-49
2021/03/10 11:00:22;;;;;;;8.70;5.80;;;15.10;26.40;;;;;;4962984;29;20797;-43
2021/03/10 11:02:51;;;;;;;5.83;4.60;;;14.60;27.00;;;;;;4962536;29;20813;-48
2021/03/10 11:05:19;;;;;;;5.00;3.70;;;14.50;27.10;;;;;;4962957;29;20810;-47
2021/03/10 11:07:48;;;;;;;7.60;4.50;;;14.30;26.20;;;;;;4962849;29;20790;-42
2021/03/10 11:10:16;;;;;;;4.50;3.10;;;14.20;26.40;;;;;;4962827;28;20871;-46
2021/03/10 11:12:46;;;;;;;4.73;3.40;;;14.10;26.90;;;;;;4962580;29;20801;-43
2021/03/10 11:15:14;;;;;;;5.50;3.90;;;13.70;26.80;;;;;;4963359;29;20928;-48
2021/03/10 11:17:43;;;;;;;9.87;4.33;;;13.10;27.30;;;;;;4963510;29;20813;-46
2021/03/10 11:20:12;;;;;;;8.93;4.87;;;13.00;27.50;;;;;;4963265;29;20769;-45
2021/03/10 11:22:43;;;;;;;6.00;4.00;;;12.80;27.40;;;;;;4963591;29;20462;-45
2021/03/10 11:25:14;;;;;;;5.27;3.93;;;12.70;27.80;;;;;;4963323;29;20794;-47
2021/03/10 11:27:42;;;;;;;10.00;4.33;;;12.60;28.00;;;;;;4963247;29;20463;-48
2021/03/10 11:30:14;;;;;;;6.30;4.60;;;12.40;28.40;;;;;;4963307;29;20470;-51
2021/03/10 11:32:43;;;;;;;5.50;3.60;;;12.20;28.00;;;;;;4962739;29;20938;-50
2021/03/10 11:35:15;;;;;;;6.77;3.87;;;11.90;28.30;;;;;;4963554;29;20824;-49
2021/03/10 11:37:44;;;;;;;6.73;4.20;;;11.70;29.20;;;;;;4963538;29;20480;-45
2021/03/10 11:40:13;;;;;;;7.70;4.73;;;11.50;29.50;;;;;;4964010;29;20789;-45
2021/03/10 11:42:42;;;;;;;4.87;4.10;;;11.20;30.00;;;;;;4964219;29;20551;-46
2021/03/10 11:45:13;;;;;;;5.97;3.97;;;11.10;30.80;;;;;;4964469;29;20938;-47
2021/03/10 11:47:41;;;;;;;8.13;4.90;;;11.10;30.30;;;;;;4963876;28;20784;-47
2021/03/10 11:50:11;;;;;;;7.37;4.53;;;11.20;31.50;;;;;;4964117;29;20828;-45
2021/03/10 11:52:42;;;;;;;5.80;5.07;;;11.20;30.60;;;;;;4963869;29;20490;-48
2021/03/10 11:55:13;;;;;;;6.70;4.77;;;11.10;31.00;;;;;;4964211;29;20810;-51
2021/03/10 11:57:42;;;;;;;7.40;4.70;;;11.10;31.10;;;;;;4963849;29;20960;-47
2021/03/10 12:00:11;;;;;;;7.73;4.97;;;11.20;31.00;;;;;;4963415;29;20467;-45
2021/03/10 12:02:40;;;;;;;8.60;5.40;;;11.20;31.10;;;;;;4963699;29;20774;-49
2021/03/10 12:05:10;;;;;;;5.20;4.07;;;11.00;30.80;;;;;;4964649;29;20803;-46
2021/03/10 12:07:38;;;;;;;9.70;6.03;;;10.80;31.20;;;;;;4964403;29;20766;-48
2021/03/10 12:10:07;;;;;;;5.47;4.30;;;10.70;30.90;;;;;;4965170;29;20460;-47
2021/03/10 12:12:35;;;;;;;8.87;5.90;;;10.60;31.30;;;;;;4964049;29;20452;-47
2021/03/10 12:15:05;;;;;;;9.10;5.47;;;10.50;30.30;;;;;;4964892;29;20753;-52
2021/03/10 12:17:34;;;;;;;8.77;5.27;;;10.40;30.70;;;;;;4964804;29;20483;-52
2021/03/10 12:20:05;;;;;;;4.70;4.20;;;10.40;30.30;;;;;;4964473;29;20812;-48
2021/03/10 12:22:33;;;;;;;5.53;3.70;;;10.20;29.90;;;;;;4964046;29;20460;-48
2021/03/10 12:25:01;;;;;;;4.87;4.13;;;10.20;29.10;;;;;;4963660;29;20804;-48
2021/03/10 12:27:30;;;;;;;6.40;3.77;;;10.20;29.20;;;;;;4964346;29;20472;-48
2021/03/10 12:29:59;;;;;;;5.83;4.13;;;10.20;29.20;;;;;;4964056;29;20877;-48
2021/03/10 12:32:28;;;;;;;7.13;4.80;;;10.20;29.80;;;;;;4963837;29;20935;-49
2021/03/10 12:34:58;;;;;;;15.60;4.07;;;10.30;30.00;;;;;;4964120;29;21074;-51
2021/03/10 12:37:27;;;;;;;7.57;4.30;;;10.40;30.30;;;;;;4963543;29;21054;-47
2021/03/10 12:39:56;;;;;;;7.80;3.97;;;10.40;30.30;;;;;;4963634;29;20838;-50
2021/03/10 12:42:25;;;;;;;10.80;4.40;;;10.50;30.30;;;;;;4963495;29;20472;-49
2021/03/10 12:44:54;;;;;;;6.23;4.23;;;10.50;29.60;;;;;;4963738;29;20459;-46
2021/03/10 12:47:22;;;;;;;7.23;4.70;;;10.50;29.70;;;;;;4963180;29;20844;-45
2021/03/10 12:49:50;;;;;;;7.97;4.33;;;10.40;30.00;;;;;;4963526;29;20564;-53
2021/03/10 12:52:19;;;;;;;5.83;5.10;;;10.30;30.30;;;;;;4963194;29;20772;-50
2021/03/10 12:54:48;;;;;;;6.90;4.17;;;10.40;31.80;;;;;;4962811;29;20792;-47
2021/03/10 12:57:16;;;;;;;5.43;4.23;;;10.50;31.20;;;;;;4962612;29;20869;-48
2021/03/10 12:59:45;;;;;;;8.20;5.43;;;10.60;31.10;;;;;;4961691;28;20487;-49
2021/03/10 13:02:13;;;;;;;7.37;5.17;;;10.70;30.50;;;;;;4962333;29;20466;-53
2021/03/10 13:04:41;;;;;;;6.00;4.93;;;10.70;31.00;;;;;;4962337;29;20819;-49
2021/03/10 13:07:10;;;;;;;7.67;5.73;;;10.80;31.10;;;;;;4962576;29;20763;-46
2021/03/10 13:09:39;;;;;;;7.77;5.00;;;10.80;30.40;;;;;;4962732;29;20938;-53
2021/03/10 13:12:10;;;;;;;9.30;5.07;;;10.80;30.90;;;;;;4961987;28;20994;-50
2021/03/10 13:14:38;;;;;;;7.43;5.97;;;10.90;31.40;;;;;;4962818;29;20918;-47
2021/03/10 13:17:07;;;;;;;6.00;5.17;;;11.10;31.30;;;;;;4962302;29;20837;-50
2021/03/10 13:19:35;;;;;;;11.40;6.67;;;11.20;31.30;;;;;;4961799;29;20804;-44
2021/03/10 13:22:04;;;;;;;9.10;6.53;;;11.20;30.80;;;;;;4962283;29;20460;-47
2021/03/10 13:24:33;;;;;;;9.13;7.07;;;11.20;31.10;;;;;;4961999;29;20992;-47
2021/03/10 13:27:02;;;;;;;8.37;5.27;;;11.40;31.40;;;;;;4961645;29;20801;-46
2021/03/10 13:29:31;;;;;;;14.10;6.23;;;11.50;31.30;;;;;;4961397;29;20869;-44
2021/03/10 13:32:00;;;;;;;8.40;5.60;;;11.70;31.00;;;;;;4961088;29;20823;-50
2021/03/10 13:34:29;;;;;;;9.00;6.10;;;12.10;30.90;;;;;;4960461;29;20766;-49
2021/03/10 13:36:57;;;;;;;8.53;6.00;;;12.30;30.40;;;;;;4960223;29;20862;-45
2021/03/10 13:39:25;;;;;;;12.27;7.20;;;12.20;29.60;;;;;;4960899;29;20773;-48
2021/03/10 13:41:54;;;;;;;10.17;6.60;;;11.90;30.20;;;;;;4960882;29;20917;-50
2021/03/10 13:44:22;;;;;;;12.30;7.70;;;11.80;30.80;;;;;;4960710;29;20936;-46
2021/03/10 13:46:52;;;;;;;8.77;6.40;;;11.60;31.10;;;;;;4961670;29;20816;-48
2021/03/10 13:49:21;;;;;;;13.90;8.30;;;11.40;31.30;;;;;;4960600;29;20468;-49
2021/03/10 13:51:50;;;;;;;10.27;6.67;;;11.50;32.00;;;;;;4961445;29;20803;-51
2021/03/10 13:54:18;;;;;;;12.77;7.90;;;11.40;31.90;;;;;;4960975;29;20455;-50
2021/03/10 13:56:46;;;;;;;14.10;7.73;;;11.30;32.10;;;;;;4960681;29;20468;-49
2021/03/10 13:59:14;;;;;;;14.70;8.73;;;11.30;32.10;;;;;;4961536;29;20911;-49
2021/03/10 14:01:43;;;;;;;13.43;9.00;;;11.20;32.60;;;;;;4960922;29;20475;-45
2021/03/10 14:04:13;;;;;;;11.70;7.17;;;11.30;32.20;;;;;;4961096;29;20439;-43
2021/03/10 14:06:41;;;;;;;10.87;6.73;;;11.40;32.40;;;;;;4961510;29;20798;-47
2021/03/10 14:09:10;;;;;;;13.37;7.70;;;11.20;31.50;;;;;;4961237;29;20796;-46
2021/03/10 14:11:38;;;;;;;9.00;6.20;;;11.40;32.10;;;;;;4962667;28;20652;-48
2021/03/10 14:14:07;;;;;;;11.90;7.63;;;11.40;32.30;;;;;;4964985;29;20797;-51
2021/03/10 14:16:35;;;;;;;12.90;7.40;;;11.40;31.10;;;;;;4965203;29;20856;-50
2021/03/10 14:19:04;;;;;;;10.40;7.50;;;11.40;31.50;;;;;;4964966;29;20827;-43
2021/03/10 14:21:33;;;;;;;8.23;6.07;;;11.30;30.10;;;;;;4965018;29;20778;-46
2021/03/10 14:24:02;;;;;;;12.33;6.70;;;11.20;30.40;;;;;;4964477;29;20811;-49
2021/03/10 14:26:31;;;;;;;11.63;6.80;;;11.20;30.40;;;;;;4964138;29;20948;-48
2021/03/10 14:28:59;;;;;;;9.73;6.30;;;11.10;30.20;;;;;;4964737;29;20800;-46
2021/03/10 14:31:30;;;;;;;10.33;6.60;;;11.10;30.60;;;;;;4964834;29;20780;-44
2021/03/10 14:33:59;;;;;;;11.60;8.40;;;11.00;31.00;;;;;;4964947;29;20770;-48
2021/03/10 14:36:27;;;;;;;11.77;7.30;;;11.00;33.90;;;;;;4965314;29;20797;-50
2021/03/10 14:38:56;;;;;;;11.93;7.63;;;11.10;31.90;;;;;;4964369;29;20863;-48
2021/03/10 14:41:26;;;;;;;11.50;7.13;;;11.20;31.70;;;;;;4964541;29;20820;-46
2021/03/10 14:43:54;;;;;;;10.07;7.00;;;11.20;31.40;;;;;;4965521;29;20817;-44
2021/03/10 14:46:22;;;;;;;9.97;7.47;;;11.10;31.60;;;;;;4965785;29;20754;-44
2021/03/10 14:48:51;;;;;;;12.80;7.13;;;11.10;31.70;;;;;;4965250;29;20785;-49
2021/03/10 14:51:19;;;;;;;10.33;6.53;;;11.10;31.40;;;;;;4964587;29;20771;-43
2021/03/10 14:53:48;;;;;;;10.97;8.00;;;11.00;31.90;;;;;;4965330;29;20451;-49
2021/03/10 14:56:17;;;;;;;11.03;7.43;;;10.90;32.40;;;;;;4965287;29;20468;-45